createdAt,value
2018-10-01T00:00:43.303Z,12.33
2018-10-01T00:03:10.272Z,13.10
2018-10-01T00:05:38.692Z,12.00
2018-10-01T00:08:05.762Z,12.10
2018-10-01T00:10:32.774Z,13.10
2018-10-01T00:13:00.096Z,13.10
2018-10-01T00:15:27.628Z,13.40
2018-10-01T00:17:54.810Z,12.07
2018-10-01T00:20:27.597Z,12.17
2018-10-01T00:22:54.636Z,11.67
2018-10-01T00:25:21.562Z,12.30
2018-10-01T00:27:48.687Z,12.63
2018-10-01T00:30:15.724Z,12.67
2018-10-01T00:32:42.706Z,12.40
2018-10-01T00:35:09.905Z,12.60
2018-10-01T00:37:36.961Z,11.30
2018-10-01T00:40:03.926Z,11.47
2018-10-01T00:42:30.911Z,11.90
2018-10-01T00:44:57.855Z,12.30
2018-10-01T00:50:17.673Z,12.23
2018-10-01T00:52:44.583Z,10.90
2018-10-01T00:55:11.523Z,11.60
2018-10-01T00:57:38.418Z,12.40
2018-10-01T01:00:05.405Z,10.70
2018-10-01T01:02:32.345Z,10.47
2018-10-01T01:04:59.321Z,9.73
2018-10-01T01:07:26.313Z,9.93
2018-10-01T01:09:53.221Z,9.97
2018-10-01T01:12:20.169Z,9.67
2018-10-01T01:14:47.069Z,9.50
2018-10-01T01:17:13.956Z,10.03
2018-10-01T01:19:40.928Z,8.90
2018-10-01T01:22:07.880Z,9.37
2018-10-01T01:24:34.856Z,8.83
2018-10-01T01:27:01.747Z,9.27
2018-10-01T01:29:28.646Z,9.17
2018-10-01T01:31:55.755Z,8.47
2018-10-01T01:34:22.688Z,8.83
2018-10-01T01:36:49.684Z,9.37
2018-10-01T01:39:16.635Z,9.23
2018-10-01T01:41:43.561Z,8.27
2018-10-01T01:44:10.513Z,9.17
2018-10-01T01:46:37.587Z,9.30
2018-10-01T01:49:04.705Z,8.33
2018-10-01T01:51:32.381Z,8.33
2018-10-01T01:54:00.055Z,8.67
2018-10-01T01:56:27.049Z,8.27
2018-10-01T01:58:54.022Z,8.63
2018-10-01T02:01:21.174Z,8.70
2018-10-01T02:03:48.082Z,9.10
2018-10-01T02:06:15.188Z,8.57
2018-10-01T02:08:42.126Z,7.97
2018-10-01T02:11:08.978Z,7.67
2018-10-01T02:13:35.886Z,8.13
2018-10-01T02:16:02.943Z,8.70
2018-10-01T02:18:29.956Z,8.17
2018-10-01T02:20:57.070Z,7.57
2018-10-01T02:23:24.109Z,8.23
2018-10-01T02:25:51.061Z,7.77
2018-10-01T02:28:17.943Z,6.93
2018-10-01T02:30:44.937Z,7.30
2018-10-01T02:33:11.964Z,8.23
2018-10-01T02:35:38.999Z,7.03
2018-10-01T02:38:06.008Z,7.40
2018-10-01T02:40:33.314Z,7.60
2018-10-01T02:43:00.300Z,6.90
2018-10-01T02:45:27.293Z,7.57
2018-10-01T02:47:54.484Z,6.63
2018-10-01T02:50:21.474Z,7.10
2018-10-01T02:52:54.086Z,6.77
2018-10-01T02:55:21.145Z,7.23
2018-10-01T02:57:48.153Z,6.90
2018-10-01T03:00:15.096Z,6.87
2018-10-01T03:02:42.283Z,6.90
2018-10-01T03:05:09.276Z,6.80
2018-10-01T03:07:36.478Z,6.83
2018-10-01T03:10:03.660Z,6.03
2018-10-01T03:12:30.595Z,6.50
2018-10-01T03:14:58.377Z,6.30
2018-10-01T03:17:25.385Z,6.80
2018-10-01T03:19:52.353Z,5.93
2018-10-01T03:22:19.320Z,6.40
2018-10-01T03:24:46.277Z,6.70
2018-10-01T03:27:13.263Z,6.70
2018-10-01T03:29:40.191Z,5.80
2018-10-01T03:32:07.173Z,5.70
2018-10-01T03:34:35.188Z,5.87
2018-10-01T03:37:02.132Z,6.40
2018-10-01T03:39:29.098Z,7.03
2018-10-01T03:41:56.144Z,6.53
2018-10-01T03:44:23.124Z,6.60
2018-10-01T03:46:50.090Z,6.63
2018-10-01T03:49:17.029Z,6.57
2018-10-01T03:51:43.974Z,6.50
2018-10-01T03:54:10.918Z,6.37
2018-10-01T03:56:37.886Z,7.07
2018-10-01T03:59:05.105Z,5.80
2018-10-01T04:01:32.047Z,6.37
2018-10-01T04:03:58.991Z,6.37
2018-10-01T04:06:25.949Z,6.80
2018-10-01T04:08:52.890Z,6.07
2018-10-01T04:11:19.875Z,5.63
2018-10-01T04:13:47.803Z,6.30
2018-10-01T04:16:14.799Z,6.10
2018-10-01T04:18:41.773Z,5.70
2018-10-01T04:21:09.345Z,5.27
2018-10-01T04:23:36.439Z,5.40
2018-10-01T04:26:03.447Z,6.00
2018-10-01T04:28:30.492Z,5.33
2018-10-01T04:31:04.823Z,4.90
2018-10-01T04:33:31.782Z,4.93
2018-10-01T04:35:58.811Z,5.23
2018-10-01T04:38:25.768Z,4.97
2018-10-01T04:40:52.792Z,4.93
2018-10-01T04:43:19.720Z,4.93
2018-10-01T04:45:47.294Z,5.50
2018-10-01T04:48:14.738Z,4.87
2018-10-01T04:50:41.830Z,4.77
2018-10-01T04:53:08.821Z,4.63
2018-10-01T04:55:35.909Z,5.27
2018-10-01T04:58:03.098Z,5.57
2018-10-01T05:00:30.223Z,5.90
2018-10-01T05:02:57.488Z,6.73
2018-10-01T05:05:26.002Z,5.97
2018-10-01T05:07:53.147Z,6.73
2018-10-01T05:10:20.361Z,6.27
2018-10-01T05:12:47.968Z,6.47
2018-10-01T05:15:15.040Z,6.50
2018-10-01T05:17:42.541Z,6.33
2018-10-01T05:20:09.665Z,6.23
2018-10-01T05:22:36.800Z,5.80
2018-10-01T05:25:03.954Z,6.30
2018-10-01T05:27:30.914Z,5.73
2018-10-01T05:29:57.895Z,5.70
2018-10-01T05:32:24.902Z,5.73
2018-10-01T05:34:51.930Z,5.43
2018-10-01T05:37:18.874Z,5.33
2018-10-01T05:39:45.788Z,5.63
2018-10-01T05:42:12.711Z,5.27
2018-10-01T05:44:39.691Z,5.10
2018-10-01T05:47:06.671Z,5.47
2018-10-01T05:49:33.735Z,5.63
2018-10-01T05:52:01.333Z,5.37
2018-10-01T05:54:28.389Z,4.83
2018-10-01T05:56:55.390Z,5.40
2018-10-01T05:59:22.395Z,5.20
2018-10-01T06:01:49.377Z,5.23
2018-10-01T06:04:16.388Z,5.20
2018-10-01T06:06:43.436Z,5.57
2018-10-01T06:09:11.551Z,5.67
2018-10-01T06:11:38.591Z,5.30
2018-10-01T06:14:05.686Z,5.27
2018-10-01T06:16:32.712Z,5.40
2018-10-01T06:19:00.142Z,4.67
2018-10-01T06:21:27.596Z,4.70
2018-10-01T06:23:54.563Z,4.50
2018-10-01T06:26:21.959Z,4.80
2018-10-01T06:28:48.960Z,5.77
2018-10-01T06:31:15.948Z,6.93
2018-10-01T06:33:43.004Z,8.10
2018-10-01T06:36:10.986Z,5.57
2018-10-01T06:38:38.547Z,4.70
2018-10-01T06:41:05.590Z,4.53
2018-10-01T06:43:33.719Z,5.03
2018-10-01T06:46:00.744Z,4.87
2018-10-01T06:48:27.755Z,5.37
2018-10-01T06:50:54.893Z,5.20
2018-10-01T06:53:21.833Z,5.53
2018-10-01T06:55:48.845Z,9.20
2018-10-01T06:58:15.832Z,7.77
2018-10-01T07:00:42.839Z,7.30
2018-10-01T07:03:09.821Z,7.30
2018-10-01T07:05:36.965Z,8.87
2018-10-01T07:08:03.932Z,5.87
2018-10-01T07:10:30.925Z,5.57
2018-10-01T07:12:58.967Z,5.77
2018-10-01T07:15:26.013Z,5.57
2018-10-01T07:17:53.059Z,5.90
2018-10-01T07:20:20.064Z,5.73
2018-10-01T07:22:47.085Z,6.60
2018-10-01T07:25:14.110Z,6.40
2018-10-01T07:27:41.088Z,6.40
2018-10-01T07:30:08.392Z,6.40
2018-10-01T07:32:35.328Z,6.40
2018-10-01T07:35:02.284Z,7.90
2018-10-01T07:37:29.324Z,7.53
2018-10-01T07:40:01.715Z,7.00
2018-10-01T07:42:28.746Z,6.67
2018-10-01T07:44:55.856Z,6.37
2018-10-01T07:47:22.898Z,9.00
2018-10-01T07:49:49.929Z,5.83
2018-10-01T07:52:18.400Z,5.80
2018-10-01T07:54:45.365Z,5.77
2018-10-01T07:57:12.380Z,11.50
2018-10-01T07:59:39.418Z,10.73
2018-10-01T08:02:06.800Z,10.33
2018-10-01T08:04:33.803Z,9.13
2018-10-01T08:07:00.735Z,7.83
2018-10-01T08:09:27.877Z,6.47
2018-10-01T08:11:54.786Z,5.57
2018-10-01T08:14:21.942Z,10.30
2018-10-01T08:16:48.919Z,13.57
2018-10-01T08:19:15.948Z,11.90
2018-10-01T08:21:44.597Z,7.60
2018-10-01T08:24:11.607Z,6.70
2018-10-01T08:26:38.701Z,6.33
2018-10-01T08:29:05.584Z,6.10
2018-10-01T08:31:32.555Z,8.80
2018-10-01T08:33:59.509Z,7.40
2018-10-01T08:36:26.480Z,13.43
2018-10-01T08:38:53.576Z,8.37
2018-10-01T08:41:20.566Z,7.33
2018-10-01T08:43:47.544Z,7.37
2018-10-01T08:46:14.513Z,7.17
2018-10-01T08:48:47.674Z,6.27
2018-10-01T08:51:22.524Z,7.23
2018-10-01T08:53:54.575Z,9.30
2018-10-01T08:56:21.639Z,7.80
2018-10-01T08:58:48.591Z,8.33
2018-10-01T09:01:15.706Z,9.53
2018-10-01T09:03:43.174Z,9.80
2018-10-01T09:06:10.177Z,9.00
2018-10-01T09:08:37.159Z,8.67
2018-10-01T09:11:04.231Z,8.90
2018-10-01T09:13:31.142Z,11.60
2018-10-01T09:15:58.124Z,13.90
2018-10-01T09:18:25.173Z,14.03
2018-10-01T09:20:52.185Z,10.50
2018-10-01T09:23:19.169Z,9.93
2018-10-01T09:25:46.225Z,8.83
2018-10-01T09:28:13.157Z,9.03
2018-10-01T09:30:40.147Z,8.77
2018-10-01T09:33:07.146Z,9.20
2018-10-01T09:35:34.133Z,8.70
2018-10-01T09:38:01.322Z,8.93
2018-10-01T09:40:28.296Z,8.43
2018-10-01T09:42:55.226Z,9.37
2018-10-01T09:45:22.194Z,9.60
2018-10-01T09:47:49.321Z,9.23
2018-10-01T09:50:16.647Z,12.00
2018-10-01T09:52:43.534Z,11.00
2018-10-01T09:55:10.506Z,10.13
2018-10-01T09:57:37.484Z,9.93
2018-10-01T10:00:04.491Z,8.80
2018-10-01T10:02:31.499Z,10.07
2018-10-01T10:04:58.425Z,9.57
2018-10-01T10:07:25.399Z,10.40
2018-10-01T10:09:52.391Z,10.57
2018-10-01T10:12:19.549Z,12.30
2018-10-01T10:14:46.543Z,11.57
2018-10-01T10:17:13.509Z,13.10
2018-10-01T10:19:40.533Z,19.47
2018-10-01T10:22:07.533Z,12.33
2018-10-01T10:24:34.528Z,10.47
2018-10-01T10:27:01.558Z,17.23
2018-10-01T10:29:28.531Z,13.93
2018-10-01T10:31:55.534Z,15.60
2018-10-01T10:34:22.492Z,16.90
2018-10-01T10:36:49.430Z,16.40
2018-10-01T10:39:16.378Z,11.07
2018-10-01T10:41:43.329Z,9.50
2018-10-01T10:44:10.419Z,13.53
2018-10-01T10:46:37.427Z,17.87
2018-10-01T10:49:05.009Z,13.80
2018-10-01T10:51:32.048Z,16.27
2018-10-01T10:53:59.653Z,9.17
2018-10-01T10:56:26.644Z,8.80
2018-10-01T10:58:53.671Z,7.63
2018-10-01T11:01:20.657Z,8.17
2018-10-01T11:03:47.763Z,14.60
2018-10-01T11:06:15.101Z,9.10
2018-10-01T11:08:42.158Z,11.90
2018-10-01T11:11:09.859Z,9.50
2018-10-01T11:13:36.877Z,7.67
2018-10-01T11:16:03.876Z,7.10
2018-10-01T11:18:30.853Z,7.00
2018-10-01T11:20:58.381Z,7.40
2018-10-01T11:23:25.376Z,7.20
2018-10-01T11:25:52.334Z,7.00
2018-10-01T11:28:19.320Z,12.00
2018-10-01T11:30:46.982Z,13.10
2018-10-01T11:33:14.047Z,11.30
2018-10-01T11:35:40.939Z,8.77
2018-10-01T11:38:08.212Z,8.80
2018-10-01T11:40:35.196Z,9.33
2018-10-01T11:43:02.240Z,8.87
2018-10-01T11:45:29.146Z,9.23
2018-10-01T11:47:56.138Z,8.03
2018-10-01T11:50:23.121Z,7.33
2018-10-01T11:52:51.253Z,6.73
2018-10-01T11:55:19.180Z,5.83
2018-10-01T11:57:46.368Z,5.10
2018-10-01T12:00:15.471Z,4.67
2018-10-01T12:02:43.711Z,4.33
2018-10-01T12:05:10.731Z,3.17
2018-10-01T12:07:37.741Z,2.57
2018-10-01T12:10:04.806Z,2.60
2018-10-01T12:12:33.849Z,2.17
2018-10-01T12:15:02.221Z,2.00
2018-10-01T12:17:29.770Z,1.57
2018-10-01T12:19:57.141Z,2.00
2018-10-01T12:22:24.264Z,1.97
2018-10-01T12:24:52.208Z,2.13
2018-10-01T12:27:20.415Z,2.30
2018-10-01T12:29:48.100Z,2.30
2018-10-01T12:32:15.235Z,2.30
2018-10-01T12:34:43.019Z,2.37
2018-10-01T12:37:09.990Z,2.80
2018-10-01T12:39:37.997Z,3.80
2018-10-01T12:47:01.203Z,2.30
2018-10-01T12:49:28.260Z,3.00
2018-10-01T12:51:55.315Z,2.73
2018-10-01T12:54:22.489Z,2.70
2018-10-01T12:56:50.677Z,3.03
2018-10-01T12:59:17.846Z,3.23
2018-10-01T13:01:44.898Z,2.83
2018-10-01T13:04:11.961Z,2.70
2018-10-01T13:06:39.074Z,2.70
2018-10-01T13:09:08.207Z,2.70
2018-10-01T13:11:35.225Z,2.00
2018-10-01T13:14:02.243Z,2.30
2018-10-01T13:16:29.235Z,2.50
2018-10-01T13:18:56.296Z,2.00
2018-10-01T13:21:23.267Z,2.33
2018-10-01T13:23:50.258Z,2.50
2018-10-01T13:26:17.283Z,2.70
2018-10-01T13:28:44.306Z,3.10
2018-10-01T13:31:12.013Z,4.00
2018-10-01T13:33:39.221Z,2.90
2018-10-01T13:36:06.374Z,2.60
2018-10-01T13:38:33.447Z,2.43
2018-10-01T13:45:55.200Z,2.23
2018-10-01T13:48:23.081Z,2.40
2018-10-01T13:50:50.168Z,1.90
2018-10-01T13:53:17.192Z,2.37
2018-10-01T13:55:44.616Z,2.10
2018-10-01T13:58:11.593Z,2.40
2018-10-01T14:00:38.663Z,2.07
2018-10-01T14:03:07.558Z,2.33
2018-10-01T14:05:34.705Z,2.10
2018-10-01T14:08:04.631Z,2.00
2018-10-01T14:10:31.686Z,2.40
2018-10-01T14:12:58.782Z,2.30
2018-10-01T14:15:25.836Z,2.20
2018-10-01T14:17:52.876Z,2.43
2018-10-01T14:20:20.434Z,2.00
2018-10-01T14:22:47.455Z,2.20
2018-10-01T14:25:14.507Z,2.20
2018-10-01T14:27:41.494Z,2.40
2018-10-01T14:30:08.460Z,3.33
2018-10-01T14:32:35.387Z,3.43
2018-10-01T14:35:02.382Z,2.20
2018-10-01T14:37:29.378Z,1.90
2018-10-01T14:39:56.389Z,1.93
2018-10-01T14:42:23.405Z,2.47
2018-10-01T14:44:50.421Z,1.90
2018-10-01T14:47:18.197Z,2.07
2018-10-01T14:49:45.207Z,2.47
2018-10-01T14:52:12.245Z,1.80
2018-10-01T14:54:39.502Z,2.00
2018-10-01T14:57:06.404Z,1.90
2018-10-01T14:59:33.332Z,1.70
2018-10-01T15:02:00.922Z,1.97
2018-10-01T15:04:27.937Z,1.93
2018-10-01T15:06:54.919Z,1.77
2018-10-01T15:09:21.887Z,1.30
2018-10-01T15:11:48.862Z,1.50
2018-10-01T15:14:15.833Z,1.40
2018-10-01T15:16:42.817Z,1.67
2018-10-01T15:19:09.715Z,1.50
2018-10-01T15:21:36.628Z,1.90
2018-10-01T15:24:03.601Z,4.50
2018-10-01T15:26:30.485Z,7.17
2018-10-01T15:28:57.502Z,8.53
2018-10-01T15:31:24.452Z,3.00
2018-10-01T15:33:51.369Z,2.00
2018-10-01T15:36:18.277Z,2.00
2018-10-01T15:38:45.230Z,1.93
2018-10-01T15:41:12.183Z,2.00
2018-10-01T15:43:39.262Z,2.00
2018-10-01T15:46:06.212Z,2.27
2018-10-01T15:48:33.162Z,2.00
2018-10-01T15:51:00.201Z,3.07
2018-10-01T15:53:27.142Z,6.67
2018-10-01T15:55:54.221Z,11.93
2018-10-01T15:58:21.134Z,11.43
2018-10-01T16:00:48.116Z,5.63
2018-10-01T16:03:15.135Z,2.47
2018-10-01T16:05:42.028Z,2.70
2018-10-01T16:08:08.982Z,2.23
2018-10-01T16:10:35.874Z,2.60
2018-10-01T16:13:02.788Z,2.40
2018-10-01T16:15:29.723Z,2.40
2018-10-01T16:17:56.779Z,2.70
2018-10-01T16:20:23.779Z,3.00
2018-10-01T16:22:50.821Z,2.30
2018-10-01T16:25:17.767Z,7.13
2018-10-01T16:27:44.669Z,10.57
2018-10-01T16:30:11.611Z,6.27
2018-10-01T16:32:38.911Z,12.40
2018-10-01T16:35:05.894Z,6.27
2018-10-01T16:37:32.863Z,5.47
2018-10-01T16:39:59.815Z,10.00
2018-10-01T16:42:27.735Z,6.17
2018-10-01T16:44:54.672Z,2.63
2018-10-01T16:47:21.612Z,2.03
2018-10-01T16:49:48.546Z,2.53
2018-10-01T16:52:15.561Z,6.60
2018-10-01T16:54:42.475Z,6.93
2018-10-01T16:57:09.392Z,5.97
2018-10-01T16:59:36.416Z,5.60
2018-10-01T17:02:03.323Z,2.70
2018-10-01T17:04:30.301Z,2.37
2018-10-01T17:06:57.303Z,2.20
2018-10-01T17:09:24.574Z,2.27
2018-10-01T17:11:51.582Z,2.67
2018-10-01T17:14:18.549Z,2.70
2018-10-01T17:16:45.456Z,2.40
2018-10-01T17:19:12.721Z,2.07
2018-10-01T17:21:39.802Z,2.53
2018-10-01T17:24:06.808Z,2.17
2018-10-01T17:26:34.769Z,2.03
2018-10-01T17:29:01.906Z,1.87
2018-10-01T17:31:28.893Z,2.07
2018-10-01T17:33:56.518Z,1.93
2018-10-01T17:36:23.496Z,1.93
2018-10-01T17:38:50.469Z,4.10
2018-10-01T17:41:17.421Z,6.47
2018-10-01T17:43:44.421Z,5.23
2018-10-01T17:46:11.368Z,3.17
2018-10-01T17:48:38.333Z,7.63
2018-10-01T17:51:05.400Z,8.37
2018-10-01T17:53:32.366Z,6.77
2018-10-01T17:55:59.352Z,4.20
2018-10-01T17:58:26.430Z,1.77
2018-10-01T18:00:53.404Z,1.50
2018-10-01T18:03:20.365Z,1.60
2018-10-01T18:05:47.355Z,1.80
2018-10-01T18:08:14.336Z,1.70
2018-10-01T18:10:41.350Z,1.70
2018-10-01T18:13:08.339Z,3.73
2018-10-01T18:15:35.283Z,6.20
2018-10-01T18:18:03.487Z,5.37
2018-10-01T18:20:30.479Z,6.47
2018-10-01T18:22:57.632Z,8.67
2018-10-01T18:25:24.827Z,2.13
2018-10-01T18:27:51.932Z,1.60
2018-10-01T18:30:19.399Z,1.57
2018-10-01T18:32:46.404Z,1.90
2018-10-01T18:35:13.469Z,1.70
2018-10-01T18:37:40.616Z,3.27
2018-10-01T18:40:09.866Z,4.90
2018-10-01T18:42:36.988Z,7.07
2018-10-01T18:45:04.043Z,3.13
2018-10-01T18:50:31.513Z,1.50
2018-10-01T18:52:58.695Z,1.40
2018-10-01T18:55:26.515Z,1.60
2018-10-01T18:57:54.162Z,1.30
2018-10-01T19:00:21.164Z,1.50
2018-10-01T19:02:48.179Z,4.57
2018-10-01T19:05:15.229Z,8.20
2018-10-01T19:07:42.271Z,4.40
2018-10-01T19:10:09.718Z,7.70
2018-10-01T19:12:36.758Z,3.90
2018-10-01T19:15:04.262Z,5.67
2018-10-01T19:17:31.254Z,2.00
2018-10-01T19:19:58.419Z,1.80
2018-10-01T19:22:25.412Z,2.47
2018-10-01T19:24:53.319Z,2.20
2018-10-01T19:27:20.886Z,1.50
2018-10-01T19:29:47.861Z,1.40
2018-10-01T19:32:30.142Z,1.13
2018-10-01T19:34:57.590Z,1.30
2018-10-01T19:37:25.957Z,1.43
2018-10-01T19:39:52.954Z,1.20
2018-10-01T19:42:20.006Z,1.37
2018-10-01T19:44:47.430Z,1.43
2018-10-01T19:47:14.440Z,1.53
2018-10-01T19:49:41.422Z,1.30
2018-10-01T19:52:08.357Z,1.60
2018-10-01T19:54:35.920Z,1.60
2018-10-01T19:57:02.849Z,1.43
2018-10-01T19:59:29.901Z,1.53
2018-10-01T20:01:57.027Z,1.53
2018-10-01T20:04:24.021Z,1.53
2018-10-01T20:06:51.279Z,1.57
2018-10-01T20:14:14.154Z,1.50
2018-10-01T20:16:41.154Z,2.40
2018-10-01T20:19:08.680Z,1.70
2018-10-01T20:21:35.692Z,2.00
2018-10-01T20:24:02.691Z,1.97
2018-10-01T20:26:29.717Z,2.07
2018-10-01T20:28:56.938Z,1.90
2018-10-01T20:31:23.846Z,1.53
2018-10-01T20:33:50.798Z,1.40
2018-10-01T20:36:17.837Z,1.67
2018-10-01T20:38:44.729Z,0.90
2018-10-01T20:41:11.710Z,1.30
2018-10-01T20:43:38.637Z,1.30
2018-10-01T20:46:05.757Z,1.57
2018-10-01T20:48:32.784Z,1.40
2018-10-01T20:50:59.756Z,2.00
2018-10-01T20:53:27.249Z,1.37
2018-10-01T20:55:54.108Z,1.40
2018-10-01T20:58:21.097Z,1.17
2018-10-01T21:00:51.927Z,1.37
2018-10-01T21:03:18.859Z,1.50
2018-10-01T21:05:45.985Z,1.30
2018-10-01T21:08:12.936Z,1.20
2018-10-01T21:10:39.967Z,1.77
2018-10-01T21:13:06.894Z,1.50
2018-10-01T21:15:33.838Z,1.70
2018-10-01T21:18:01.750Z,1.27
2018-10-01T21:20:28.818Z,1.30
2018-10-01T21:22:55.759Z,1.73
2018-10-01T21:25:22.694Z,2.20
2018-10-01T21:27:49.741Z,1.53
2018-10-01T21:30:16.662Z,1.53
2018-10-01T21:32:43.841Z,1.60
2018-10-01T21:35:10.800Z,1.20
2018-10-01T21:37:37.691Z,1.63
2018-10-01T21:40:05.935Z,1.40
2018-10-01T21:42:33.454Z,1.33
2018-10-01T21:45:00.825Z,1.57
2018-10-01T21:47:28.589Z,1.40
2018-10-01T21:49:56.165Z,1.97
2018-10-01T21:52:24.934Z,1.60
2018-10-01T21:54:53.059Z,1.60
2018-10-01T21:57:20.193Z,1.73
2018-10-01T21:59:47.611Z,1.67
2018-10-01T22:02:14.608Z,1.53
2018-10-01T22:04:41.692Z,1.47
2018-10-01T22:07:08.652Z,1.40
2018-10-01T22:09:35.800Z,1.30
2018-10-01T22:12:03.075Z,1.50
2018-10-01T22:14:30.002Z,1.40
2018-10-01T22:16:57.078Z,1.60
2018-10-01T22:19:24.384Z,1.60
2018-10-01T22:21:51.306Z,2.10
2018-10-01T22:24:18.198Z,3.67
2018-10-01T22:26:45.162Z,1.90
2018-10-01T22:29:12.051Z,2.93
2018-10-01T22:31:38.932Z,2.43
2018-10-01T22:34:05.889Z,2.80
2018-10-01T22:36:32.795Z,2.00
2018-10-01T22:38:59.701Z,2.13
2018-10-01T22:41:26.953Z,3.67
2018-10-01T22:43:53.895Z,2.93
2018-10-01T22:46:20.845Z,3.53
2018-10-01T22:48:47.835Z,2.70
2018-10-01T22:51:14.767Z,2.20
2018-10-01T22:53:41.650Z,1.80
2018-10-01T22:56:08.571Z,1.40
2018-10-01T22:58:35.515Z,1.60
2018-10-01T23:01:02.449Z,1.50
2018-10-01T23:03:30.108Z,1.70
2018-10-01T23:05:57.131Z,1.80
2018-10-01T23:08:24.063Z,1.43
2018-10-01T23:10:51.028Z,3.57
2018-10-01T23:13:17.975Z,3.00
2018-10-01T23:15:44.912Z,2.70
2018-10-01T23:18:11.817Z,2.30
2018-10-01T23:20:38.809Z,4.10
2018-10-01T23:23:05.755Z,3.17
2018-10-01T23:25:33.273Z,2.70
2018-10-01T23:28:00.186Z,2.40
2018-10-01T23:30:27.154Z,2.00
2018-10-01T23:32:54.120Z,1.70
2018-10-01T23:35:21.050Z,2.63
2018-10-01T23:37:48.065Z,1.90
2018-10-01T23:40:15.022Z,1.60
2018-10-01T23:42:41.931Z,1.57
2018-10-01T23:45:08.889Z,1.67
2018-10-01T23:47:35.844Z,1.47
2018-10-01T23:50:02.825Z,2.07
2018-10-01T23:52:29.732Z,1.37
2018-10-01T23:54:56.839Z,1.50
2018-10-01T23:57:23.715Z,2.17
2018-10-01T23:59:50.727Z,1.87
